Airfield :
LOGIN :

Register | Disclaimer

   EN    FR    IT 

 










Legend :    VFR   Marginal VFR   IFR   Intensive IFR   Very Intensive IFR
Visi :
Ceiling :
>= 8 km
>= 3000ft
5 to 8 km
1000 to 3000 ft
1500m to 5 km
500 to 1000 ft
800 to 1500m
200 to 500 ft
< 800m
< 200 ft
Symbols :   Thunderstorms  Fog  Heavy snow  Heavy precipitations  Wind > 20 kt
SIGMETs :     Misc.  Thunderstorms  Icing  Turbulence  Mountain Waves  Volcanic Ashes






- Airport Elevation : 19 ft
- IATA code : BEB


EGPL - Benbecula

CURRENT METAR :
  • 171750Z 27032G42KT 9999 -SHRA FEW014CB SCT029 BKN045 07/03 Q0993

EXPIRED METARs :
  • 171720Z 29021G35KT 9999 -SHRAGS FEW012CB FEW019 BKN024 06/04 Q0992
  • 171650Z 27022KT 9999 -SHRA FEW012CB SCT028 06/03 Q0992
  • 171620Z 27026KT 9999 -SHRA FEW014CB FEW024 BKN036 06/03 Q0991
  • 171550Z 27024G34KT 9999 VCSH FEW015CB BKN028 07/03 Q0990
  • 171520Z 26027KT 9999 -SHRA FEW006 SCT015CB BKN030 07/03 Q0990

Expired Forecast.
ATIS : +44 1870 604 818



MET'MAP, your aeronautical weather chart ! - Copyright ORBIFLY December 2007 - Disclaimer

ORBIFLY MET'MAP TEAM :

Programming & Development : Alexandra Zaïnal
Concept & original design : Baudouin d'Aumeries
Assistance for programming : Marc-Olivier Méhu
Technical & hardware support : Manuel Goepfert

Contact : metmap@orbifly.com




SOURCES & CREDITS :

   NOAA